Dewitt Spain (M01)
Memphis, TN
Field Elevation: 224
Lat: 35°12.04N  Long: 90°03.24W
CTAF/Unicom Freq: 122.7000
   
     For Weather-by-Phone, call 901-354-9296
Weather Advisories
10/31/2014 17:32 Z
Altimeter 30.16" Hg
Wind 010° @ 12 KT
Gusts 19 KT
Visibility 10 SM
Ceiling --
Temperature 13° C (55° F)
Dewpoint 8° C (46° F)
Relative Humidity 70%
Density Altitude --
Condensation Altitude 3,000 feet
  Wind and Runways
Indicated Runway = 35
History
 
 
More Info
All DigiWx sites map
NOAA Forecast
 
Airport IQ 5010
(2M8) Charles W. Baker Airport
(3M3) Collegedale Muni
 
about DigiWx
 
FAA Disclaimer: The data displayed is for advisory purposes only and is not to be used for flight planning or operations. For official data, please call 901-354-9296 to hear the current automated AWOS voice message.
  METAR M01 311732Z AUTO 01012G19KT 10SM 13/08 A3016